sensor_id;sensor_type;location;lat;lon;timestamp;temperature;humidity
17659;DHT22;8948;51.534;8.262;2023-01-23T00:04:31;2.70;77.90
17659;DHT22;8948;51.534;8.262;2023-01-23T00:09:32;2.70;78.00
17659;DHT22;8948;51.534;8.262;2023-01-23T00:14:33;2.80;77.70
17659;DHT22;8948;51.534;8.262;2023-01-23T00:19:33;2.80;77.40
17659;DHT22;8948;51.534;8.262;2023-01-23T00:24:34;2.80;77.20
17659;DHT22;8948;51.534;8.262;2023-01-23T00:29:34;2.60;78.00
17659;DHT22;8948;51.534;8.262;2023-01-23T00:34:36;2.60;78.40
17659;DHT22;8948;51.534;8.262;2023-01-23T00:39:36;2.70;78.20
17659;DHT22;8948;51.534;8.262;2023-01-23T00:44:37;2.70;77.90
17659;DHT22;8948;51.534;8.262;2023-01-23T00:49:37;2.70;77.60
17659;DHT22;8948;51.534;8.262;2023-01-23T00:54:38;2.70;77.70
17659;DHT22;8948;51.534;8.262;2023-01-23T00:59:39;2.70;77.60
17659;DHT22;8948;51.534;8.262;2023-01-23T01:04:39;2.80;77.50
17659;DHT22;8948;51.534;8.262;2023-01-23T01:09:40;2.80;77.60
17659;DHT22;8948;51.534;8.262;2023-01-23T01:14:40;2.70;77.70
17659;DHT22;8948;51.534;8.262;2023-01-23T01:19:41;2.70;78.00
17659;DHT22;8948;51.534;8.262;2023-01-23T01:24:41;2.70;78.00
17659;DHT22;8948;51.534;8.262;2023-01-23T01:29:42;2.80;77.70
17659;DHT22;8948;51.534;8.262;2023-01-23T01:34:42;2.80;77.50
17659;DHT22;8948;51.534;8.262;2023-01-23T01:39:43;2.80;77.50
17659;DHT22;8948;51.534;8.262;2023-01-23T01:44:55;2.70;77.60
17659;DHT22;8948;51.534;8.262;2023-01-23T01:50:00;2.70;77.80
17659;DHT22;8948;51.534;8.262;2023-01-23T01:55:04;2.60;78.20
17659;DHT22;8948;51.534;8.262;2023-01-23T02:00:11;2.70;77.90
17659;DHT22;8948;51.534;8.262;2023-01-23T02:05:17;2.70;78.00
17659;DHT22;8948;51.534;8.262;2023-01-23T02:10:20;2.70;77.80
17659;DHT22;8948;51.534;8.262;2023-01-23T02:15:21;2.70;77.80
17659;DHT22;8948;51.534;8.262;2023-01-23T02:20:25;2.70;77.70
17659;DHT22;8948;51.534;8.262;2023-01-23T02:30:44;2.70;77.70
17659;DHT22;8948;51.534;8.262;2023-01-23T02:35:46;2.70;77.70
17659;DHT22;8948;51.534;8.262;2023-01-23T02:40:47;2.70;77.70
17659;DHT22;8948;51.534;8.262;2023-01-23T02:45:48;2.70;78.10
17659;DHT22;8948;51.534;8.262;2023-01-23T02:50:48;2.70;77.70
17659;DHT22;8948;51.534;8.262;2023-01-23T02:55:49;2.70;77.80
17659;DHT22;8948;51.534;8.262;2023-01-23T03:00:49;2.70;77.90
17659;DHT22;8948;51.534;8.262;2023-01-23T03:05:50;2.70;77.70
17659;DHT22;8948;51.534;8.262;2023-01-23T03:10:50;2.70;78.00
17659;DHT22;8948;51.534;8.262;2023-01-23T03:15:51;2.70;77.80
17659;DHT22;8948;51.534;8.262;2023-01-23T03:20:52;2.60;78.30
17659;DHT22;8948;51.534;8.262;2023-01-23T03:25:53;2.60;78.00
17659;DHT22;8948;51.534;8.262;2023-01-23T03:30:57;2.60;78.40
17659;DHT22;8948;51.534;8.262;2023-01-23T03:35:58;2.60;78.20
17659;DHT22;8948;51.534;8.262;2023-01-23T03:40:58;2.60;78.40
17659;DHT22;8948;51.534;8.262;2023-01-23T03:46:18;2.60;78.50
17659;DHT22;8948;51.534;8.262;2023-01-23T03:51:18;2.50;78.70
17659;DHT22;8948;51.534;8.262;2023-01-23T03:56:19;2.50;78.40
17659;DHT22;8948;51.534;8.262;2023-01-23T04:01:19;2.60;78.60
17659;DHT22;8948;51.534;8.262;2023-01-23T04:06:20;2.60;78.30
17659;DHT22;8948;51.534;8.262;2023-01-23T04:11:20;2.60;78.60
17659;DHT22;8948;51.534;8.262;2023-01-23T04:16:21;2.50;78.60
17659;DHT22;8948;51.534;8.262;2023-01-23T04:21:22;2.60;78.40
17659;DHT22;8948;51.534;8.262;2023-01-23T04:26:23;2.60;78.50
17659;DHT22;8948;51.534;8.262;2023-01-23T04:31:23;2.70;78.10
17659;DHT22;8948;51.534;8.262;2023-01-23T04:36:24;2.60;78.10
17659;DHT22;8948;51.534;8.262;2023-01-23T04:41:26;2.50;78.70
17659;DHT22;8948;51.534;8.262;2023-01-23T04:46:28;2.30;79.50
17659;DHT22;8948;51.534;8.262;2023-01-23T04:51:28;2.20;79.90
17659;DHT22;8948;51.534;8.262;2023-01-23T04:56:29;2.40;79.20
17659;DHT22;8948;51.534;8.262;2023-01-23T05:01:29;2.50;78.90
17659;DHT22;8948;51.534;8.262;2023-01-23T05:06:30;2.60;78.60
17659;DHT22;8948;51.534;8.262;2023-01-23T05:11:30;2.50;78.60
17659;DHT22;8948;51.534;8.262;2023-01-23T05:16:31;2.50;78.80
17659;DHT22;8948;51.534;8.262;2023-01-23T05:21:31;2.50;78.70
17659;DHT22;8948;51.534;8.262;2023-01-23T05:26:32;2.50;78.60
17659;DHT22;8948;51.534;8.262;2023-01-23T05:31:34;2.50;81.30
17659;DHT22;8948;51.534;8.262;2023-01-23T05:36:34;3.40;86.70
17659;DHT22;8948;51.534;8.262;2023-01-23T05:41:35;3.60;78.30
17659;DHT22;8948;51.534;8.262;2023-01-23T05:46:35;3.30;77.40
17659;DHT22;8948;51.534;8.262;2023-01-23T05:51:36;3.20;77.20
17659;DHT22;8948;51.534;8.262;2023-01-23T05:56:37;3.10;77.20
17659;DHT22;8948;51.534;8.262;2023-01-23T06:01:37;3.00;77.00
17659;DHT22;8948;51.534;8.262;2023-01-23T06:06:38;2.90;77.40
17659;DHT22;8948;51.534;8.262;2023-01-23T06:11:38;2.80;77.60
17659;DHT22;8948;51.534;8.262;2023-01-23T06:16:39;2.70;78.10
17659;DHT22;8948;51.534;8.262;2023-01-23T06:21:40;2.70;78.20
17659;DHT22;8948;51.534;8.262;2023-01-23T06:26:40;2.70;77.90
17659;DHT22;8948;51.534;8.262;2023-01-23T06:31:41;2.70;78.00
17659;DHT22;8948;51.534;8.262;2023-01-23T06:36:41;2.80;78.70
17659;DHT22;8948;51.534;8.262;2023-01-23T06:41:42;2.80;80.40
17659;DHT22;8948;51.534;8.262;2023-01-23T06:46:43;2.90;78.10
17659;DHT22;8948;51.534;8.262;2023-01-23T06:51:44;2.90;77.90
17659;DHT22;8948;51.534;8.262;2023-01-23T06:56:44;2.80;77.90
17659;DHT22;8948;51.534;8.262;2023-01-23T07:01:45;2.70;78.10
17659;DHT22;8948;51.534;8.262;2023-01-23T07:06:46;2.60;78.50
17659;DHT22;8948;51.534;8.262;2023-01-23T07:11:46;2.60;78.60
17659;DHT22;8948;51.534;8.262;2023-01-23T07:16:47;2.60;78.80
17659;DHT22;8948;51.534;8.262;2023-01-23T07:21:48;2.60;78.80
17659;DHT22;8948;51.534;8.262;2023-01-23T07:26:48;2.60;78.70
17659;DHT22;8948;51.534;8.262;2023-01-23T07:31:49;2.60;78.70
17659;DHT22;8948;51.534;8.262;2023-01-23T07:36:50;2.60;78.70
17659;DHT22;8948;51.534;8.262;2023-01-23T07:41:50;2.60;78.70
17659;DHT22;8948;51.534;8.262;2023-01-23T07:46:51;2.70;78.50
17659;DHT22;8948;51.534;8.262;2023-01-23T07:51:51;2.60;78.40
17659;DHT22;8948;51.534;8.262;2023-01-23T07:56:52;2.60;78.40
17659;DHT22;8948;51.534;8.262;2023-01-23T08:01:52;2.70;78.20
17659;DHT22;8948;51.534;8.262;2023-01-23T08:06:53;2.70;78.40
17659;DHT22;8948;51.534;8.262;2023-01-23T08:11:54;2.80;77.70
17659;DHT22;8948;51.534;8.262;2023-01-23T08:16:55;2.90;77.40
17659;DHT22;8948;51.534;8.262;2023-01-23T08:21:55;2.90;77.20
17659;DHT22;8948;51.534;8.262;2023-01-23T08:26:56;2.90;76.90
17659;DHT22;8948;51.534;8.262;2023-01-23T08:31:57;2.90;77.00
17659;DHT22;8948;51.534;8.262;2023-01-23T08:36:57;3.10;76.80
17659;DHT22;8948;51.534;8.262;2023-01-23T08:41:58;3.20;75.90
17659;DHT22;8948;51.534;8.262;2023-01-23T08:47:00;3.30;76.10
17659;DHT22;8948;51.534;8.262;2023-01-23T08:52:02;3.20;75.90
17659;DHT22;8948;51.534;8.262;2023-01-23T08:57:04;3.20;75.80
17659;DHT22;8948;51.534;8.262;2023-01-23T09:02:05;3.30;75.20
17659;DHT22;8948;51.534;8.262;2023-01-23T09:07:05;3.40;75.30
17659;DHT22;8948;51.534;8.262;2023-01-23T09:12:06;3.60;74.70
17659;DHT22;8948;51.534;8.262;2023-01-23T09:17:07;3.70;74.70
17659;DHT22;8948;51.534;8.262;2023-01-23T09:22:08;3.60;74.80
17659;DHT22;8948;51.534;8.262;2023-01-23T09:27:09;3.60;74.20
17659;DHT22;8948;51.534;8.262;2023-01-23T09:32:09;3.60;74.80
17659;DHT22;8948;51.534;8.262;2023-01-23T09:37:10;3.50;74.90
17659;DHT22;8948;51.534;8.262;2023-01-23T09:42:32;3.60;74.70
17659;DHT22;8948;51.534;8.262;2023-01-23T09:53:05;3.60;74.70
17659;DHT22;8948;51.534;8.262;2023-01-23T09:58:30;3.80;74.30
17659;DHT22;8948;51.534;8.262;2023-01-23T10:03:33;3.80;74.60
17659;DHT22;8948;51.534;8.262;2023-01-23T10:19:01;3.80;74.00
17659;DHT22;8948;51.534;8.262;2023-01-23T10:29:36;4.10;76.00
17659;DHT22;8948;51.534;8.262;2023-01-23T10:34:55;4.00;73.60
17659;DHT22;8948;51.534;8.262;2023-01-23T10:40:00;4.30;75.30
17659;DHT22;8948;51.534;8.262;2023-01-23T10:45:01;4.30;73.40
17659;DHT22;8948;51.534;8.262;2023-01-23T10:50:03;4.20;74.90
17659;DHT22;8948;51.534;8.262;2023-01-23T10:55:24;4.30;73.30
17659;DHT22;8948;51.534;8.262;2023-01-23T11:00:33;4.30;73.10
17659;DHT22;8948;51.534;8.262;2023-01-23T11:05:40;4.40;73.00
17659;DHT22;8948;51.534;8.262;2023-01-23T11:10:42;4.30;72.50
17659;DHT22;8948;51.534;8.262;2023-01-23T11:15:47;4.40;72.40
17659;DHT22;8948;51.534;8.262;2023-01-23T11:20:53;4.30;72.30
17659;DHT22;8948;51.534;8.262;2023-01-23T11:25:54;4.10;72.70
17659;DHT22;8948;51.534;8.262;2023-01-23T11:36:47;4.10;73.20
17659;DHT22;8948;51.534;8.262;2023-01-23T11:41:45;4.30;73.20
17659;DHT22;8948;51.534;8.262;2023-01-23T11:57:48;4.60;72.60
17659;DHT22;8948;51.534;8.262;2023-01-23T12:24:16;4.60;71.70
17659;DHT22;8948;51.534;8.262;2023-01-23T12:39:59;4.40;72.40
17659;DHT22;8948;51.534;8.262;2023-01-23T12:55:24;4.40;72.60
17659;DHT22;8948;51.534;8.262;2023-01-23T13:00:44;4.30;72.40
17659;DHT22;8948;51.534;8.262;2023-01-23T13:16:30;4.20;72.90
17659;DHT22;8948;51.534;8.262;2023-01-23T13:21:31;4.20;72.80
17659;DHT22;8948;51.534;8.262;2023-01-23T13:26:50;4.30;72.80
17659;DHT22;8948;51.534;8.262;2023-01-23T13:32:20;4.10;73.30
17659;DHT22;8948;51.534;8.262;2023-01-23T13:47:32;4.00;73.10
17659;DHT22;8948;51.534;8.262;2023-01-23T13:52:56;4.10;73.40
17659;DHT22;8948;51.534;8.262;2023-01-23T13:58:20;4.10;73.70
17659;DHT22;8948;51.534;8.262;2023-01-23T14:03:30;4.10;73.80
17659;DHT22;8948;51.534;8.262;2023-01-23T14:08:52;4.00;73.60
17659;DHT22;8948;51.534;8.262;2023-01-23T14:13:54;4.20;80.80
17659;DHT22;8948;51.534;8.262;2023-01-23T14:19:23;4.30;74.10
17659;DHT22;8948;51.534;8.262;2023-01-23T14:29:38;4.10;74.30
17659;DHT22;8948;51.534;8.262;2023-01-23T14:34:39;4.10;73.70
17659;DHT22;8948;51.534;8.262;2023-01-23T14:39:44;3.90;74.30
17659;DHT22;8948;51.534;8.262;2023-01-23T14:44:46;3.90;74.90
17659;DHT22;8948;51.534;8.262;2023-01-23T14:49:47;4.00;74.30
17659;DHT22;8948;51.534;8.262;2023-01-23T14:54:48;3.90;74.60
17659;DHT22;8948;51.534;8.262;2023-01-23T14:59:49;3.80;75.00
17659;DHT22;8948;51.534;8.262;2023-01-23T15:10:20;3.70;75.20
17659;DHT22;8948;51.534;8.262;2023-01-23T15:15:23;3.70;75.20
17659;DHT22;8948;51.534;8.262;2023-01-23T15:20:37;3.60;75.30
17659;DHT22;8948;51.534;8.262;2023-01-23T15:25:40;3.60;75.40
17659;DHT22;8948;51.534;8.262;2023-01-23T15:30:45;3.70;75.30
17659;DHT22;8948;51.534;8.262;2023-01-23T15:35:47;3.60;75.60
17659;DHT22;8948;51.534;8.262;2023-01-23T15:40:48;3.60;75.90
17659;DHT22;8948;51.534;8.262;2023-01-23T15:45:48;3.50;75.80
17659;DHT22;8948;51.534;8.262;2023-01-23T15:50:50;3.50;76.20
17659;DHT22;8948;51.534;8.262;2023-01-23T15:55:51;3.60;75.80
17659;DHT22;8948;51.534;8.262;2023-01-23T16:00:51;3.60;75.80
17659;DHT22;8948;51.534;8.262;2023-01-23T16:05:52;3.60;75.70
17659;DHT22;8948;51.534;8.262;2023-01-23T16:10:52;3.50;75.90
17659;DHT22;8948;51.534;8.262;2023-01-23T16:15:53;3.50;75.90
17659;DHT22;8948;51.534;8.262;2023-01-23T16:20:54;3.40;76.00
17659;DHT22;8948;51.534;8.262;2023-01-23T16:25:55;3.40;76.40
17659;DHT22;8948;51.534;8.262;2023-01-23T16:30:56;3.40;76.60
17659;DHT22;8948;51.534;8.262;2023-01-23T16:35:56;3.50;76.30
17659;DHT22;8948;51.534;8.262;2023-01-23T16:40:58;3.70;75.70
17659;DHT22;8948;51.534;8.262;2023-01-23T16:45:59;3.60;75.80
17659;DHT22;8948;51.534;8.262;2023-01-23T16:51:11;3.60;75.80
17659;DHT22;8948;51.534;8.262;2023-01-23T16:56:25;3.60;76.00
17659;DHT22;8948;51.534;8.262;2023-01-23T17:01:29;3.50;75.70
17659;DHT22;8948;51.534;8.262;2023-01-23T17:06:32;3.50;76.00
17659;DHT22;8948;51.534;8.262;2023-01-23T17:11:55;3.50;76.00
17659;DHT22;8948;51.534;8.262;2023-01-23T17:17:04;3.40;76.70
17659;DHT22;8948;51.534;8.262;2023-01-23T17:22:20;3.40;76.60
17659;DHT22;8948;51.534;8.262;2023-01-23T17:27:21;3.40;76.50
17659;DHT22;8948;51.534;8.262;2023-01-23T17:32:32;3.30;76.80
17659;DHT22;8948;51.534;8.262;2023-01-23T17:37:35;3.30;77.00
17659;DHT22;8948;51.534;8.262;2023-01-23T17:42:36;3.30;77.00
17659;DHT22;8948;51.534;8.262;2023-01-23T17:47:36;3.30;76.60
17659;DHT22;8948;51.534;8.262;2023-01-23T17:52:37;3.30;76.90
17659;DHT22;8948;51.534;8.262;2023-01-23T17:57:37;3.20;77.20
17659;DHT22;8948;51.534;8.262;2023-01-23T18:02:39;3.10;77.60
17659;DHT22;8948;51.534;8.262;2023-01-23T18:07:40;3.10;77.70
17659;DHT22;8948;51.534;8.262;2023-01-23T18:12:53;3.00;77.90
17659;DHT22;8948;51.534;8.262;2023-01-23T18:18:06;3.10;77.80
17659;DHT22;8948;51.534;8.262;2023-01-23T18:23:12;3.00;77.50
17659;DHT22;8948;51.534;8.262;2023-01-23T18:28:17;2.90;78.10
17659;DHT22;8948;51.534;8.262;2023-01-23T18:39:01;2.90;78.10
17659;DHT22;8948;51.534;8.262;2023-01-23T18:44:22;2.90;78.30
17659;DHT22;8948;51.534;8.262;2023-01-23T18:49:24;2.80;78.40
17659;DHT22;8948;51.534;8.262;2023-01-23T18:54:43;2.80;78.30
17659;DHT22;8948;51.534;8.262;2023-01-23T19:20:45;3.00;77.60
17659;DHT22;8948;51.534;8.262;2023-01-23T19:25:48;3.10;76.80
17659;DHT22;8948;51.534;8.262;2023-01-23T19:30:49;3.10;76.80
17659;DHT22;8948;51.534;8.262;2023-01-23T19:35:49;3.10;76.80
17659;DHT22;8948;51.534;8.262;2023-01-23T19:40:50;3.10;76.90
17659;DHT22;8948;51.534;8.262;2023-01-23T19:45:51;3.10;77.20
17659;DHT22;8948;51.534;8.262;2023-01-23T19:50:51;3.10;77.20
17659;DHT22;8948;51.534;8.262;2023-01-23T19:55:52;3.00;77.90
17659;DHT22;8948;51.534;8.262;2023-01-23T20:00:53;3.00;77.20
17659;DHT22;8948;51.534;8.262;2023-01-23T20:05:53;3.10;77.30
17659;DHT22;8948;51.534;8.262;2023-01-23T20:10:55;3.10;77.00
17659;DHT22;8948;51.534;8.262;2023-01-23T20:15:55;3.10;77.30
17659;DHT22;8948;51.534;8.262;2023-01-23T20:20:59;3.00;77.20
17659;DHT22;8948;51.534;8.262;2023-01-23T20:26:00;3.00;77.40
17659;DHT22;8948;51.534;8.262;2023-01-23T20:31:11;2.90;77.70
17659;DHT22;8948;51.534;8.262;2023-01-23T20:36:12;3.00;77.70
17659;DHT22;8948;51.534;8.262;2023-01-23T20:41:15;2.90;77.70
17659;DHT22;8948;51.534;8.262;2023-01-23T20:46:18;3.00;77.40
17659;DHT22;8948;51.534;8.262;2023-01-23T20:51:18;3.00;77.10
17659;DHT22;8948;51.534;8.262;2023-01-23T20:56:21;3.10;76.80
17659;DHT22;8948;51.534;8.262;2023-01-23T21:01:29;3.10;76.50
17659;DHT22;8948;51.534;8.262;2023-01-23T21:06:50;3.10;77.00
17659;DHT22;8948;51.534;8.262;2023-01-23T21:11:51;2.90;75.80
17659;DHT22;8948;51.534;8.262;2023-01-23T21:16:52;2.90;75.30
17659;DHT22;8948;51.534;8.262;2023-01-23T21:21:53;3.00;75.50
17659;DHT22;8948;51.534;8.262;2023-01-23T21:26:53;3.10;75.50
17659;DHT22;8948;51.534;8.262;2023-01-23T21:31:54;3.00;74.50
17659;DHT22;8948;51.534;8.262;2023-01-23T21:36:56;3.00;74.60
17659;DHT22;8948;51.534;8.262;2023-01-23T21:41:57;3.00;74.60
17659;DHT22;8948;51.534;8.262;2023-01-23T21:46:57;3.00;74.90
17659;DHT22;8948;51.534;8.262;2023-01-23T21:51:58;3.10;74.40
17659;DHT22;8948;51.534;8.262;2023-01-23T21:56:58;3.00;74.30
17659;DHT22;8948;51.534;8.262;2023-01-23T22:01:59;2.90;74.40
17659;DHT22;8948;51.534;8.262;2023-01-23T22:06:59;2.90;74.00
17659;DHT22;8948;51.534;8.262;2023-01-23T22:12:00;3.00;73.90
17659;DHT22;8948;51.534;8.262;2023-01-23T22:17:01;3.00;73.90
17659;DHT22;8948;51.534;8.262;2023-01-23T22:22:01;2.90;73.40
17659;DHT22;8948;51.534;8.262;2023-01-23T22:27:02;2.90;73.80
17659;DHT22;8948;51.534;8.262;2023-01-23T22:32:03;2.90;73.70
17659;DHT22;8948;51.534;8.262;2023-01-23T22:37:04;3.00;73.70
17659;DHT22;8948;51.534;8.262;2023-01-23T22:42:04;3.00;73.30
17659;DHT22;8948;51.534;8.262;2023-01-23T22:47:05;3.00;73.50
17659;DHT22;8948;51.534;8.262;2023-01-23T22:52:05;3.00;73.40
17659;DHT22;8948;51.534;8.262;2023-01-23T22:57:06;2.90;73.00
17659;DHT22;8948;51.534;8.262;2023-01-23T23:02:06;3.00;73.30
17659;DHT22;8948;51.534;8.262;2023-01-23T23:07:07;3.00;73.30
17659;DHT22;8948;51.534;8.262;2023-01-23T23:12:07;2.90;73.20
17659;DHT22;8948;51.534;8.262;2023-01-23T23:17:08;2.90;72.80
17659;DHT22;8948;51.534;8.262;2023-01-23T23:22:09;2.80;72.90
17659;DHT22;8948;51.534;8.262;2023-01-23T23:27:09;2.90;72.80
17659;DHT22;8948;51.534;8.262;2023-01-23T23:32:10;2.90;73.20
17659;DHT22;8948;51.534;8.262;2023-01-23T23:37:10;2.90;72.60
17659;DHT22;8948;51.534;8.262;2023-01-23T23:42:11;2.90;72.20
17659;DHT22;8948;51.534;8.262;2023-01-23T23:47:11;2.90;72.50
17659;DHT22;8948;51.534;8.262;2023-01-23T23:52:12;3.00;72.40
17659;DHT22;8948;51.534;8.262;2023-01-23T23:57:12;3.00;72.30
